createdAt,value
2023-01-22T00:01:00.745Z,102354.13
2023-01-22T00:03:26.971Z,102354.28
2023-01-22T00:05:53.186Z,102357.13
2023-01-22T00:08:19.533Z,102349.38
2023-01-22T00:10:52.084Z,102340.00
2023-01-22T00:13:18.562Z,102343.13
2023-01-22T00:15:44.805Z,102348.00
2023-01-22T00:18:11.048Z,102332.38
2023-01-22T00:20:37.354Z,102330.88
2023-01-22T00:23:03.568Z,102323.00
2023-01-22T00:25:29.776Z,102315.13
2023-01-22T00:27:55.981Z,102303.19
2023-01-22T00:30:22.192Z,102303.47
2023-01-22T00:32:48.572Z,102296.78
2023-01-22T00:35:14.784Z,102279.69
2023-01-22T00:37:40.996Z,102270.47
2023-01-22T00:40:07.354Z,102280.03
2023-01-22T00:42:33.564Z,102269.34
2023-01-22T00:44:59.774Z,102271.34
2023-01-22T00:47:26.001Z,102261.19
2023-01-22T00:49:52.213Z,102257.28
2023-01-22T00:52:18.416Z,102271.50
2023-01-22T00:54:44.637Z,102265.81
2023-01-22T00:57:10.851Z,102275.31
2023-01-22T00:59:37.145Z,102277.09
2023-01-22T01:02:03.492Z,102288.59
2023-01-22T01:04:29.830Z,102287.13
2023-01-22T01:06:56.029Z,102282.78
2023-01-22T01:09:22.507Z,102289.56
2023-01-22T01:11:48.759Z,102293.47
2023-01-22T01:14:14.978Z,102288.44
2023-01-22T01:16:41.201Z,102291.31
2023-01-22T01:19:07.835Z,102303.56
2023-01-22T01:21:34.132Z,102316.31
2023-01-22T01:24:00.447Z,102306.13
2023-01-22T01:26:26.697Z,102312.78
2023-01-22T01:28:52.982Z,102315.06
2023-01-22T01:31:19.666Z,102315.06
2023-01-22T01:33:46.012Z,102312.34
2023-01-22T01:36:13.084Z,102320.22
2023-01-22T01:38:39.298Z,102298.78
2023-01-22T01:41:05.682Z,102309.75
2023-01-22T01:43:31.885Z,102301.34
2023-01-22T01:45:58.532Z,102300.25
2023-01-22T01:48:57.206Z,102296.84
2023-01-22T01:51:25.658Z,102293.03
2023-01-22T01:53:51.853Z,102285.03
2023-01-22T01:56:26.228Z,102282.28
2023-01-22T01:58:53.685Z,102267.47
2023-01-22T02:01:19.907Z,102255.00
2023-01-22T02:03:46.173Z,102242.94
2023-01-22T02:06:12.833Z,102226.47
2023-01-22T02:08:39.423Z,102228.81
2023-01-22T02:11:05.645Z,102218.91
2023-01-22T02:13:32.494Z,102225.53
2023-01-22T02:15:58.721Z,102232.59
2023-01-22T02:18:24.925Z,102225.53
2023-01-22T02:20:51.907Z,102229.13
2023-01-22T02:23:18.101Z,102219.47
2023-01-22T02:25:44.310Z,102215.72
2023-01-22T02:28:10.514Z,102216.66
2023-01-22T02:30:36.771Z,102227.22
2023-01-22T02:33:03.006Z,102211.50
2023-01-22T02:35:29.220Z,102220.56
2023-01-22T02:37:55.412Z,102209.44
2023-01-22T02:40:21.634Z,102217.84
2023-01-22T02:42:47.837Z,102215.94
2023-01-22T02:45:14.057Z,102204.78
2023-01-22T02:47:40.268Z,102204.59
2023-01-22T02:50:06.588Z,102213.50
2023-01-22T02:52:32.811Z,102209.94
2023-01-22T02:54:59.025Z,102205.59
2023-01-22T02:57:25.234Z,102205.25
2023-01-22T02:59:51.444Z,102210.09
2023-01-22T03:02:17.725Z,102219.63
2023-01-22T03:04:43.975Z,102223.38
2023-01-22T03:07:10.196Z,102218.50
2023-01-22T03:09:36.398Z,102219.16
2023-01-22T03:12:02.674Z,102217.09
2023-01-22T03:14:28.882Z,102207.06
2023-01-22T03:16:55.095Z,102195.94
2023-01-22T03:19:21.367Z,102195.63
2023-01-22T03:21:47.575Z,102192.25
2023-01-22T03:24:13.776Z,102181.41
2023-01-22T03:26:39.999Z,102185.47
2023-01-22T03:29:06.210Z,102177.56
2023-01-22T03:31:32.538Z,102167.56
2023-01-22T03:33:58.783Z,102164.16
2023-01-22T03:36:25.012Z,102161.28
2023-01-22T03:38:51.240Z,102158.03
2023-01-22T03:41:17.462Z,102156.41
2023-01-22T03:43:44.133Z,102163.19
2023-01-22T03:46:11.117Z,102163.19
2023-01-22T03:48:37.361Z,102172.06
2023-01-22T03:51:04.376Z,102178.53
2023-01-22T03:53:30.605Z,102168.00
2023-01-22T03:55:57.579Z,102188.19
2023-01-22T03:58:23.938Z,102181.56
2023-01-22T04:00:50.285Z,102180.59
2023-01-22T04:03:16.544Z,102189.50
2023-01-22T04:05:42.757Z,102179.94
2023-01-22T04:08:08.979Z,102193.22
2023-01-22T04:10:35.190Z,102198.66
2023-01-22T04:13:01.423Z,102199.63
2023-01-22T04:15:27.622Z,102201.56
2023-01-22T04:17:53.831Z,102207.53
2023-01-22T04:20:20.160Z,102220.28
2023-01-22T04:22:47.127Z,102208.63
2023-01-22T04:25:13.337Z,102222.56
2023-01-22T04:27:39.544Z,102208.47
2023-01-22T04:30:06.135Z,102226.41
2023-01-22T04:32:32.362Z,102226.41
2023-01-22T04:34:58.561Z,102224.13
2023-01-22T04:37:24.791Z,102224.13
2023-01-22T04:39:50.995Z,102218.94
2023-01-22T04:42:17.217Z,102232.66
2023-01-22T04:44:43.424Z,102235.09
2023-01-22T04:47:09.634Z,102237.09
2023-01-22T04:49:35.831Z,102233.47
2023-01-22T04:52:02.052Z,102221.84
2023-01-22T04:54:28.260Z,102234.44
2023-01-22T04:56:54.476Z,102225.22
2023-01-22T04:59:20.675Z,102224.94
2023-01-22T05:01:46.878Z,102215.72
2023-01-22T05:04:13.097Z,102220.06
2023-01-22T05:06:39.305Z,102218.00
2023-01-22T05:09:05.505Z,102205.19
2023-01-22T05:11:31.702Z,102216.97
2023-01-22T05:13:57.927Z,102223.09
2023-01-22T05:16:24.119Z,102224.72
2023-01-22T05:18:50.347Z,102229.44
2023-01-22T05:21:16.542Z,102215.41
2023-01-22T05:23:42.747Z,102198.16
2023-01-22T05:26:09.144Z,102196.69
2023-01-22T05:28:35.394Z,102190.13
2023-01-22T05:31:01.699Z,102181.06
2023-01-22T05:33:31.241Z,102181.22
2023-01-22T05:35:57.831Z,102177.66
2023-01-22T05:38:24.248Z,102167.66
2023-01-22T05:40:50.447Z,102172.34
2023-01-22T05:43:16.654Z,102161.59
2023-01-22T05:45:42.855Z,102162.03
2023-01-22T05:48:09.063Z,102155.09
2023-01-22T05:50:35.263Z,102162.19
2023-01-22T05:53:01.485Z,102165.28
2023-01-22T05:55:27.682Z,102158.06
2023-01-22T05:57:53.884Z,102179.09
2023-01-22T06:00:20.376Z,102182.47
2023-01-22T06:02:46.689Z,102196.84
2023-01-22T06:05:13.000Z,102194.78
2023-01-22T06:07:39.216Z,102198.81
2023-01-22T06:10:05.628Z,102190.28
2023-01-22T06:12:31.847Z,102177.38
2023-01-22T06:14:58.064Z,102188.94
2023-01-22T06:17:24.261Z,102183.50
2023-01-22T06:19:50.469Z,102188.03
2023-01-22T06:22:16.681Z,102162.53
2023-01-22T06:24:42.912Z,102156.22
2023-01-22T06:27:09.119Z,102168.50
2023-01-22T06:29:35.333Z,102153.19
2023-01-22T06:32:01.547Z,102156.06
2023-01-22T06:34:27.756Z,102152.88
2023-01-22T06:36:53.958Z,102150.28
2023-01-22T06:39:20.165Z,102132.38
2023-01-22T06:41:46.971Z,102136.38
2023-01-22T06:44:13.193Z,102142.50
2023-01-22T06:46:39.462Z,102147.22
2023-01-22T06:49:05.700Z,102133.84
2023-01-22T06:51:31.934Z,102124.78
2023-01-22T06:53:58.950Z,102142.16
2023-01-22T06:56:25.149Z,102159.44
2023-01-22T06:58:51.366Z,102159.81
2023-01-22T07:01:17.634Z,102164.63
2023-01-22T07:03:43.903Z,102172.19
2023-01-22T07:06:10.137Z,102179.94
2023-01-22T07:08:36.353Z,102174.84
2023-01-22T07:11:02.561Z,102166.44
2023-01-22T07:13:28.767Z,102176.84
2023-01-22T07:15:55.068Z,102193.97
2023-01-22T07:18:21.298Z,102192.84
2023-01-22T07:20:47.573Z,102204.44
2023-01-22T07:23:13.800Z,102212.19
2023-01-22T07:25:40.071Z,102217.78
2023-01-22T07:28:06.355Z,102231.19
2023-01-22T07:30:32.682Z,102237.47
2023-01-22T07:32:59.365Z,102243.00
2023-01-22T07:35:25.723Z,102242.94
2023-01-22T07:37:52.260Z,102273.97
2023-01-22T07:40:18.740Z,102275.56
2023-01-22T07:42:45.069Z,102267.84
2023-01-22T07:45:11.279Z,102279.69
2023-01-22T07:47:37.477Z,102250.66
2023-01-22T07:50:03.797Z,102260.31
2023-01-22T07:52:30.006Z,102256.09
2023-01-22T07:54:56.213Z,102249.03
2023-01-22T07:57:22.411Z,102247.72
2023-01-22T07:59:48.620Z,102258.03
2023-01-22T08:02:14.881Z,102273.38
2023-01-22T08:04:41.410Z,102283.09
2023-01-22T08:07:14.140Z,102276.47
2023-01-22T08:09:40.375Z,102270.34
2023-01-22T08:12:06.601Z,102280.66
2023-01-22T08:14:32.815Z,102278.06
2023-01-22T08:16:59.046Z,102289.72
2023-01-22T08:19:25.236Z,102299.84
2023-01-22T08:21:51.454Z,102309.72
2023-01-22T08:24:17.656Z,102320.69
2023-01-22T08:26:43.874Z,102324.25
2023-01-22T08:29:10.086Z,102319.81
2023-01-22T08:31:36.402Z,102341.06
2023-01-22T08:34:02.701Z,102342.75
2023-01-22T08:36:28.951Z,102359.41
2023-01-22T08:38:55.179Z,102355.34
2023-01-22T08:41:21.517Z,102366.34
2023-01-22T08:43:47.733Z,102378.69
2023-01-22T08:46:14.048Z,102358.75
2023-01-22T08:48:40.241Z,102366.88
2023-01-22T08:51:06.450Z,102374.91
2023-01-22T08:53:32.681Z,102373.78
2023-01-22T08:55:58.893Z,102368.78
2023-01-22T08:58:25.091Z,102358.91
2023-01-22T09:00:51.372Z,102366.06
2023-01-22T09:03:17.602Z,102358.47
2023-01-22T09:05:43.821Z,102352.22
2023-01-22T09:08:10.029Z,102360.63
2023-01-22T09:10:36.236Z,102370.50
2023-01-22T09:13:02.452Z,102351.94
2023-01-22T09:15:28.675Z,102345.94
2023-01-22T09:17:54.887Z,102359.38
2023-01-22T09:20:21.281Z,102357.09
2023-01-22T09:22:47.840Z,102346.31
2023-01-22T09:25:14.175Z,102335.47
2023-01-22T09:27:40.374Z,102339.84
2023-01-22T09:30:06.866Z,102338.06
2023-01-22T09:32:33.085Z,102347.72
2023-01-22T09:34:59.295Z,102349.19
2023-01-22T09:37:25.508Z,102347.63
2023-01-22T09:39:51.710Z,102339.88
2023-01-22T09:42:21.912Z,102345.38
2023-01-22T09:44:49.022Z,102346.53
2023-01-22T09:47:16.545Z,102346.81
2023-01-22T09:49:53.960Z,102364.63
2023-01-22T09:52:20.246Z,102370.28
2023-01-22T09:54:46.446Z,102362.25
2023-01-22T09:57:26.467Z,102363.88
2023-01-22T09:59:57.226Z,102366.00
2023-01-22T10:02:25.466Z,102359.06
2023-01-22T10:04:52.450Z,102356.72
2023-01-22T10:07:31.541Z,102340.06
2023-01-22T10:10:02.092Z,102358.81
2023-01-22T10:12:28.455Z,102350.09
2023-01-22T10:14:54.656Z,102349.66
2023-01-22T10:17:21.763Z,102338.97
2023-01-22T10:19:49.147Z,102338.50
2023-01-22T10:22:22.491Z,102330.56
2023-01-22T10:24:48.882Z,102349.47
2023-01-22T10:27:15.481Z,102345.91
2023-01-22T10:29:42.035Z,102351.22
2023-01-22T10:32:19.870Z,102356.25
2023-01-22T10:34:56.749Z,102354.31
2023-01-22T10:37:22.963Z,102351.31
2023-01-22T10:39:49.171Z,102355.94
2023-01-22T10:42:16.013Z,102343.19
2023-01-22T10:44:42.229Z,102355.69
2023-01-22T10:47:09.281Z,102368.16
2023-01-22T10:49:35.494Z,102366.72
2023-01-22T10:52:04.914Z,102343.47
2023-01-22T10:54:32.209Z,102333.59
2023-01-22T10:57:13.859Z,102335.81
2023-01-22T10:59:40.222Z,102326.81
2023-01-22T11:02:11.606Z,102322.47
2023-01-22T11:04:37.859Z,102303.56
2023-01-22T11:07:05.685Z,102308.53
2023-01-22T11:09:50.675Z,102309.59
2023-01-22T11:12:29.535Z,102320.75
2023-01-22T11:14:58.717Z,102323.81
2023-01-22T11:17:25.503Z,102301.84
2023-01-22T11:19:56.836Z,102326.03
2023-01-22T11:22:27.667Z,102340.28
2023-01-22T11:24:53.894Z,102318.00
2023-01-22T11:27:33.398Z,102328.16
2023-01-22T11:30:21.128Z,102330.94
2023-01-22T11:33:06.635Z,102309.47
2023-01-22T11:35:37.770Z,102293.28
2023-01-22T11:38:10.075Z,102311.38
2023-01-22T11:40:39.594Z,102305.56
2023-01-22T11:43:09.213Z,102301.13
2023-01-22T11:45:41.538Z,102276.69
2023-01-22T11:48:14.529Z,102260.03
2023-01-22T11:50:49.262Z,102267.47
2023-01-22T11:53:36.565Z,102274.47
2023-01-22T11:56:17.654Z,102257.53
2023-01-22T11:58:46.844Z,102248.72
2023-01-22T12:01:24.534Z,102243.78
2023-01-22T12:04:09.769Z,102234.69
2023-01-22T12:06:35.930Z,102243.41
2023-01-22T12:09:21.028Z,102228.63
2023-01-22T12:11:59.240Z,102211.31
2023-01-22T12:14:44.125Z,102214.03
2023-01-22T12:17:16.092Z,102222.75
2023-01-22T12:19:58.288Z,102237.06
2023-01-22T12:22:29.159Z,102211.59
2023-01-22T12:24:58.432Z,102239.72
2023-01-22T12:27:44.376Z,102241.06
2023-01-22T12:30:15.984Z,102231.53
2023-01-22T12:32:42.629Z,102224.44
2023-01-22T12:35:14.634Z,102254.41
2023-01-22T12:37:50.499Z,102263.84
2023-01-22T12:40:16.919Z,102257.06
2023-01-22T12:42:44.836Z,102260.75
2023-01-22T12:45:14.069Z,102287.09
2023-01-22T12:47:59.054Z,102280.47
2023-01-22T12:50:25.655Z,102270.59
2023-01-22T12:52:58.847Z,102301.69
2023-01-22T12:55:28.105Z,102318.41
2023-01-22T12:57:54.325Z,102314.09
2023-01-22T13:00:23.401Z,102293.97
2023-01-22T13:02:49.669Z,102307.84
2023-01-22T13:05:31.286Z,102328.88
2023-01-22T13:08:16.262Z,102323.78
2023-01-22T13:10:52.713Z,102307.41
2023-01-22T13:13:23.344Z,102321.28
2023-01-22T13:15:53.507Z,102314.03
2023-01-22T13:18:20.601Z,102305.94
2023-01-22T13:20:58.793Z,102303.78
2023-01-22T13:23:25.003Z,102324.03
2023-01-22T13:25:54.710Z,102329.94
2023-01-22T13:28:21.102Z,102359.47
2023-01-22T13:31:00.621Z,102388.69
2023-01-22T13:33:26.878Z,102399.56
2023-01-22T13:35:53.098Z,102423.25
2023-01-22T13:38:20.731Z,102447.56
2023-01-22T13:40:53.344Z,102449.47
2023-01-22T13:43:19.589Z,102448.72
2023-01-22T13:45:45.811Z,102466.94
2023-01-22T13:48:18.558Z,102472.91
2023-01-22T13:50:51.822Z,102499.09
2023-01-22T13:53:34.305Z,102489.75
2023-01-22T13:56:00.507Z,102491.59
2023-01-22T13:58:47.865Z,102492.47
2023-01-22T14:01:41.384Z,102505.91
2023-01-22T14:04:07.953Z,102504.31
2023-01-22T14:06:46.966Z,102531.34
2023-01-22T14:09:13.162Z,102534.59
2023-01-22T14:11:39.821Z,102536.38
2023-01-22T14:14:15.913Z,102529.34
2023-01-22T14:16:42.167Z,102534.34
2023-01-22T14:19:08.389Z,102530.44
2023-01-22T14:21:34.600Z,102553.53
2023-01-22T14:24:00.797Z,102537.81
2023-01-22T14:26:27.015Z,102552.63
2023-01-22T14:28:53.209Z,102555.88
2023-01-22T14:31:19.444Z,102549.91
2023-01-22T14:33:45.660Z,102551.09
2023-01-22T14:36:11.869Z,102553.81
2023-01-22T14:38:38.088Z,102545.41
2023-01-22T14:41:04.698Z,102540.25
2023-01-22T14:43:30.909Z,102538.03
2023-01-22T14:45:57.244Z,102537.81
2023-01-22T14:48:23.484Z,102538.47
2023-01-22T14:50:49.858Z,102529.25
2023-01-22T14:53:16.894Z,102540.09
2023-01-22T14:55:43.161Z,102527.34
2023-01-22T14:58:09.724Z,102527.34
2023-01-22T15:00:35.935Z,102521.50
2023-01-22T15:03:02.138Z,102525.44
2023-01-22T15:05:28.413Z,102515.41
2023-01-22T15:07:54.624Z,102525.56
2023-01-22T15:10:21.094Z,102513.25
2023-01-22T15:12:48.079Z,102512.56
2023-01-22T15:15:15.043Z,102507.84
2023-01-22T15:17:41.259Z,102499.66
2023-01-22T15:20:07.910Z,102496.19
2023-01-22T15:22:34.127Z,102490.63
2023-01-22T15:25:00.345Z,102490.88
2023-01-22T15:27:26.559Z,102486.13
2023-01-22T15:29:52.778Z,102485.72
2023-01-22T15:32:18.994Z,102473.75
2023-01-22T15:34:45.194Z,102459.00
2023-01-22T15:37:11.408Z,102453.41
2023-01-22T15:39:37.616Z,102448.78
2023-01-22T15:42:03.893Z,102434.41
2023-01-22T15:44:30.093Z,102428.44
2023-01-22T15:46:56.304Z,102425.72
2023-01-22T15:49:22.506Z,102423.41
2023-01-22T15:51:48.723Z,102406.59
2023-01-22T15:54:15.276Z,102401.28
2023-01-22T15:56:41.506Z,102376.31
2023-01-22T15:59:07.714Z,102367.63
2023-01-22T16:01:33.986Z,102358.53
2023-01-22T16:04:00.230Z,102340.63
2023-01-22T16:06:27.351Z,102322.94
2023-01-22T16:08:54.314Z,102318.50
2023-01-22T16:11:20.706Z,102295.06
2023-01-22T16:13:46.974Z,102278.53
2023-01-22T16:16:14.209Z,102255.31
2023-01-22T16:18:40.448Z,102230.34
2023-01-22T16:21:06.863Z,102222.09
2023-01-22T16:23:33.365Z,102193.88
2023-01-22T16:25:59.580Z,102177.44
2023-01-22T16:28:25.802Z,102153.56
2023-01-22T16:30:52.191Z,102142.81
2023-01-22T16:33:20.083Z,102121.66
2023-01-22T16:35:46.298Z,102117.97
2023-01-22T16:38:12.513Z,102103.47
2023-01-22T16:40:38.870Z,102087.19
2023-01-22T16:43:05.101Z,102083.28
2023-01-22T16:45:31.398Z,102073.13
2023-01-22T16:47:57.623Z,102072.81
2023-01-22T16:50:23.846Z,102063.47
2023-01-22T16:52:50.071Z,102062.00
2023-01-22T16:55:16.274Z,102055.09
2023-01-22T16:57:42.491Z,102054.78
2023-01-22T17:00:08.897Z,102055.59
2023-01-22T17:02:35.206Z,102055.75
2023-01-22T17:05:01.494Z,102063.31
2023-01-22T17:07:33.664Z,102054.78
2023-01-22T17:10:00.760Z,102064.63
2023-01-22T17:12:27.011Z,102071.72
2023-01-22T17:14:53.237Z,102079.75
2023-01-22T17:17:19.460Z,102077.84
2023-01-22T17:19:45.668Z,102085.56
2023-01-22T17:22:11.856Z,102098.59
2023-01-22T17:24:38.076Z,102102.34
2023-01-22T17:27:04.281Z,102114.19
2023-01-22T17:29:30.808Z,102118.53
2023-01-22T17:31:57.128Z,102119.19
2023-01-22T17:34:23.362Z,102127.06
2023-01-22T17:36:49.577Z,102133.53
2023-01-22T17:39:15.850Z,102151.00
2023-01-22T17:41:42.173Z,102145.13
2023-01-22T17:44:08.392Z,102152.16
2023-01-22T17:46:34.609Z,102158.81
2023-01-22T17:49:00.936Z,102149.06
2023-01-22T17:51:27.609Z,102150.69
2023-01-22T17:53:54.204Z,102143.63
2023-01-22T17:56:21.291Z,102155.44
2023-01-22T17:58:49.033Z,102158.97
2023-01-22T18:01:15.315Z,102159.91
2023-01-22T18:03:41.585Z,102151.94
2023-01-22T18:06:07.800Z,102155.50
2023-01-22T18:08:34.111Z,102154.16
2023-01-22T18:11:01.992Z,102149.16
2023-01-22T18:13:28.207Z,102155.63
2023-01-22T18:15:54.431Z,102149.97
2023-01-22T18:18:20.647Z,102149.81
2023-01-22T18:20:46.850Z,102150.47
2023-01-22T18:23:13.293Z,102149.22
2023-01-22T18:25:40.183Z,102144.34
2023-01-22T18:28:06.382Z,102149.97
2023-01-22T18:30:33.586Z,102143.16
2023-01-22T18:32:59.789Z,102136.53
2023-01-22T18:35:26.010Z,102136.84
2023-01-22T18:37:52.219Z,102126.03
2023-01-22T18:40:18.465Z,102113.28
2023-01-22T18:42:44.656Z,102117.84
2023-01-22T18:45:11.104Z,102110.94
2023-01-22T18:47:37.308Z,102108.66
2023-01-22T18:50:03.564Z,102098.63
2023-01-22T18:52:29.771Z,102098.25
2023-01-22T18:54:55.987Z,102094.84
2023-01-22T18:57:22.183Z,102081.97
2023-01-22T18:59:48.387Z,102074.53
2023-01-22T19:02:14.596Z,102076.44
2023-01-22T19:04:40.815Z,102066.78
2023-01-22T19:07:07.025Z,102062.31
2023-01-22T19:09:33.241Z,102060.03
2023-01-22T19:11:59.488Z,102047.94
2023-01-22T19:14:25.760Z,102046.97
2023-01-22T19:16:52.177Z,102049.97
2023-01-22T19:19:18.425Z,102053.47
2023-01-22T19:21:44.967Z,102059.31
2023-01-22T19:24:11.186Z,102060.63
2023-01-22T19:26:37.434Z,102062.69
2023-01-22T19:29:04.828Z,102062.53
2023-01-22T19:31:32.043Z,102064.16
2023-01-22T19:33:58.296Z,102066.75
2023-01-22T19:36:25.337Z,102068.22
2023-01-22T19:38:51.559Z,102076.44
2023-01-22T19:41:17.816Z,102070.13
2023-01-22T19:43:44.032Z,102070.78
2023-01-22T19:46:12.318Z,102068.81
2023-01-22T19:48:38.695Z,102076.25
2023-01-22T19:51:05.821Z,102065.53
2023-01-22T19:53:32.039Z,102073.56
2023-01-22T19:55:58.258Z,102066.78
2023-01-22T19:58:24.502Z,102070.94
2023-01-22T20:00:50.844Z,102062.13
2023-01-22T20:03:17.060Z,102068.19
2023-01-22T20:05:43.711Z,102063.25
2023-01-22T20:08:10.190Z,102051.59
2023-01-22T20:10:36.543Z,102035.47
2023-01-22T20:13:03.510Z,102026.63
2023-01-22T20:15:29.779Z,102003.69
2023-01-22T20:17:55.987Z,102002.44
2023-01-22T20:20:22.193Z,101991.47
2023-01-22T20:22:48.747Z,101987.66
2023-01-22T20:25:15.003Z,101978.84
2023-01-22T20:27:41.351Z,101965.13
2023-01-22T20:30:07.733Z,101957.28
2023-01-22T20:32:33.937Z,101955.78
2023-01-22T20:35:00.159Z,101947.47
2023-01-22T20:37:26.395Z,101944.41
2023-01-22T20:39:52.813Z,101937.75
2023-01-22T20:42:19.005Z,101930.81
2023-01-22T20:44:46.131Z,101919.72
2023-01-22T20:47:12.416Z,101912.00
2023-01-22T20:49:38.632Z,101899.41
2023-01-22T20:52:04.910Z,101898.09
2023-01-22T20:54:31.229Z,101888.94
2023-01-22T20:56:57.436Z,101881.69
2023-01-22T20:59:23.631Z,101877.69
2023-01-22T21:01:49.861Z,101879.19
2023-01-22T21:04:16.154Z,101869.53
2023-01-22T21:06:42.399Z,101867.22
2023-01-22T21:09:08.770Z,101857.88
2023-01-22T21:11:35.391Z,101852.47
2023-01-22T21:14:01.733Z,101848.28
2023-01-22T21:16:28.747Z,101848.38
2023-01-22T21:18:55.378Z,101840.97
2023-01-22T21:21:21.586Z,101832.13
2023-01-22T21:23:48.062Z,101826.22
2023-01-22T21:26:14.568Z,101824.13
2023-01-22T21:28:40.782Z,101823.59
2023-01-22T21:31:07.652Z,101824.56
2023-01-22T21:33:33.857Z,101824.72
2023-01-22T21:36:04.100Z,101824.56
2023-01-22T21:38:30.322Z,101823.09
2023-01-22T21:41:06.445Z,101818.75
2023-01-22T21:43:32.713Z,101808.13
2023-01-22T21:45:59.021Z,101803.28
2023-01-22T21:48:25.267Z,101797.03
2023-01-22T21:50:51.557Z,101785.63
2023-01-22T21:53:17.779Z,101784.28
2023-01-22T21:55:50.914Z,101786.22
2023-01-22T21:58:17.115Z,101786.53
2023-01-22T22:00:43.374Z,101778.81
2023-01-22T22:03:09.628Z,101765.91
2023-01-22T22:05:35.856Z,101755.16
2023-01-22T22:08:02.048Z,101752.88
2023-01-22T22:10:28.294Z,101750.47
2023-01-22T22:12:54.515Z,101740.81
2023-01-22T22:15:20.709Z,101745.97
2023-01-22T22:17:46.923Z,101737.59
2023-01-22T22:20:13.123Z,101739.50
2023-01-22T22:22:39.335Z,101735.31
2023-01-22T22:25:05.691Z,101729.88
2023-01-22T22:27:31.901Z,101725.97
2023-01-22T22:29:58.107Z,101719.06
2023-01-22T22:32:24.335Z,101722.69
2023-01-22T22:34:50.533Z,101711.94
2023-01-22T22:37:16.938Z,101696.31
2023-01-22T22:39:43.139Z,101693.25
2023-01-22T22:42:09.376Z,101699.66
2023-01-22T22:44:35.981Z,101692.75
2023-01-22T22:47:02.215Z,101684.72
2023-01-22T22:49:28.451Z,101680.22
2023-01-22T22:51:54.673Z,101679.72
2023-01-22T22:54:20.870Z,101679.88
2023-01-22T22:56:47.538Z,101671.50
2023-01-22T22:59:13.849Z,101685.03
2023-01-22T23:01:40.064Z,101683.56
2023-01-22T23:04:06.439Z,101682.59
2023-01-22T23:06:33.021Z,101689.69
2023-01-22T23:08:59.279Z,101692.38
2023-01-22T23:11:27.026Z,101698.34
2023-01-22T23:13:53.273Z,101699.28
2023-01-22T23:16:20.019Z,101707.72
2023-01-22T23:18:46.914Z,101707.03
2023-01-22T23:21:14.021Z,101707.72
2023-01-22T23:23:40.415Z,101717.84
2023-01-22T23:26:08.161Z,101714.31
2023-01-22T23:28:34.447Z,101715.78
2023-01-22T23:31:04.923Z,101721.06
2023-01-22T23:33:31.196Z,101731.38
2023-01-22T23:36:01.100Z,101733.31
2023-01-22T23:38:27.308Z,101731.53
2023-01-22T23:40:57.405Z,101726.22
2023-01-22T23:43:23.635Z,101728.81
2023-01-22T23:45:49.878Z,101730.09
2023-01-22T23:48:16.096Z,101732.84
2023-01-22T23:50:45.549Z,101731.88
2023-01-22T23:53:11.766Z,101740.41
2023-01-22T23:55:37.966Z,101743.63
2023-01-22T23:58:04.174Z,101753.44
